sensor_id;sensor_type;location;lat;lon;timestamp;P1;durP1;ratioP1;P2;durP2;ratioP2
71383;SDS011;67558;52.166;5.004;2023-03-01T00:02:06;8.35;;;4.50;;
71383;SDS011;67558;52.166;5.004;2023-03-01T00:04:31;11.55;;;7.72;;
71383;SDS011;67558;52.166;5.004;2023-03-01T00:06:57;9.85;;;5.70;;
71383;SDS011;67558;52.166;5.004;2023-03-01T00:09:22;15.23;;;5.88;;
71383;SDS011;67558;52.166;5.004;2023-03-01T00:11:48;9.73;;;5.85;;
71383;SDS011;67558;52.166;5.004;2023-03-01T00:14:13;8.73;;;4.28;;
71383;SDS011;67558;52.166;5.004;2023-03-01T00:16:41;9.25;;;4.50;;
71383;SDS011;67558;52.166;5.004;2023-03-01T00:19:12;8.38;;;6.22;;
71383;SDS011;67558;52.166;5.004;2023-03-01T00:21:40;9.00;;;5.43;;
71383;SDS011;67558;52.166;5.004;2023-03-01T00:24:06;9.68;;;4.93;;
71383;SDS011;67558;52.166;5.004;2023-03-01T00:26:32;10.10;;;5.97;;
71383;SDS011;67558;52.166;5.004;2023-03-01T00:28:58;10.52;;;6.72;;
71383;SDS011;67558;52.166;5.004;2023-03-01T00:31:25;10.63;;;5.32;;
71383;SDS011;67558;52.166;5.004;2023-03-01T00:33:56;15.45;;;6.45;;
71383;SDS011;67558;52.166;5.004;2023-03-01T00:36:24;8.75;;;5.55;;
71383;SDS011;67558;52.166;5.004;2023-03-01T00:38:51;6.28;;;5.22;;
71383;SDS011;67558;52.166;5.004;2023-03-01T00:41:17;6.88;;;4.43;;
71383;SDS011;67558;52.166;5.004;2023-03-01T00:43:44;8.10;;;4.90;;
71383;SDS011;67558;52.166;5.004;2023-03-01T00:46:11;7.78;;;4.07;;
71383;SDS011;67558;52.166;5.004;2023-03-01T00:48:39;8.90;;;4.78;;
71383;SDS011;67558;52.166;5.004;2023-03-01T00:51:05;8.05;;;4.60;;
71383;SDS011;67558;52.166;5.004;2023-03-01T00:53:30;9.45;;;5.28;;
71383;SDS011;67558;52.166;5.004;2023-03-01T00:55:57;9.55;;;6.60;;
71383;SDS011;67558;52.166;5.004;2023-03-01T00:58:23;10.93;;;6.15;;
71383;SDS011;67558;52.166;5.004;2023-03-01T01:00:48;16.33;;;6.88;;
71383;SDS011;67558;52.166;5.004;2023-03-01T01:03:14;9.85;;;5.57;;
71383;SDS011;67558;52.166;5.004;2023-03-01T01:05:39;11.55;;;6.38;;
71383;SDS011;67558;52.166;5.004;2023-03-01T01:08:04;9.55;;;6.05;;
71383;SDS011;67558;52.166;5.004;2023-03-01T01:10:30;7.95;;;5.00;;
71383;SDS011;67558;52.166;5.004;2023-03-01T01:12:56;14.95;;;6.30;;
71383;SDS011;67558;52.166;5.004;2023-03-01T01:15:21;10.63;;;5.68;;
71383;SDS011;67558;52.166;5.004;2023-03-01T01:17:46;12.70;;;6.47;;
71383;SDS011;67558;52.166;5.004;2023-03-01T01:20:12;14.23;;;5.55;;
71383;SDS011;67558;52.166;5.004;2023-03-01T01:22:37;9.05;;;5.53;;
71383;SDS011;67558;52.166;5.004;2023-03-01T01:25:03;9.05;;;4.63;;
71383;SDS011;67558;52.166;5.004;2023-03-01T01:27:29;7.00;;;5.68;;
71383;SDS011;67558;52.166;5.004;2023-03-01T01:29:54;11.70;;;5.63;;
71383;SDS011;67558;52.166;5.004;2023-03-01T01:32:20;12.15;;;4.75;;
71383;SDS011;67558;52.166;5.004;2023-03-01T01:34:45;7.82;;;4.90;;
71383;SDS011;67558;52.166;5.004;2023-03-01T01:37:11;6.60;;;4.60;;
71383;SDS011;67558;52.166;5.004;2023-03-01T01:39:37;5.97;;;3.85;;
71383;SDS011;67558;52.166;5.004;2023-03-01T01:42:02;6.72;;;3.97;;
71383;SDS011;67558;52.166;5.004;2023-03-01T01:44:28;7.90;;;5.15;;
71383;SDS011;67558;52.166;5.004;2023-03-01T01:52:29;6.72;;;4.38;;
71383;SDS011;67558;52.166;5.004;2023-03-01T01:55:03;6.45;;;3.63;;
71383;SDS011;67558;52.166;5.004;2023-03-01T01:57:34;8.48;;;4.90;;
71383;SDS011;67558;52.166;5.004;2023-03-01T02:00:07;7.50;;;4.78;;
71383;SDS011;67558;52.166;5.004;2023-03-01T02:02:37;7.88;;;4.70;;
71383;SDS011;67558;52.166;5.004;2023-03-01T02:05:09;8.82;;;4.78;;
71383;SDS011;67558;52.166;5.004;2023-03-01T02:07:39;7.05;;;4.53;;
71383;SDS011;67558;52.166;5.004;2023-03-01T02:10:07;6.20;;;3.80;;
71383;SDS011;67558;52.166;5.004;2023-03-01T02:12:34;6.75;;;3.88;;
71383;SDS011;67558;52.166;5.004;2023-03-01T02:15:00;9.25;;;4.72;;
71383;SDS011;67558;52.166;5.004;2023-03-01T02:17:26;8.38;;;5.22;;
71383;SDS011;67558;52.166;5.004;2023-03-01T02:20:07;6.25;;;5.53;;
71383;SDS011;67558;52.166;5.004;2023-03-01T02:22:39;5.68;;;3.55;;
71383;SDS011;67558;52.166;5.004;2023-03-01T02:25:12;7.32;;;5.60;;
71383;SDS011;67558;52.166;5.004;2023-03-01T02:28:05;8.07;;;5.20;;
71383;SDS011;67558;52.166;5.004;2023-03-01T02:30:38;8.15;;;4.38;;
71383;SDS011;67558;52.166;5.004;2023-03-01T02:33:24;8.07;;;4.07;;
71383;SDS011;67558;52.166;5.004;2023-03-01T02:35:51;8.20;;;4.75;;
71383;SDS011;67558;52.166;5.004;2023-03-01T02:38:19;10.57;;;6.32;;
71383;SDS011;67558;52.166;5.004;2023-03-01T02:40:45;11.13;;;6.53;;
71383;SDS011;67558;52.166;5.004;2023-03-01T02:43:12;8.45;;;5.68;;
71383;SDS011;67558;52.166;5.004;2023-03-01T02:45:38;9.55;;;5.90;;
71383;SDS011;67558;52.166;5.004;2023-03-01T02:48:13;6.97;;;4.25;;
71383;SDS011;67558;52.166;5.004;2023-03-01T02:51:02;9.38;;;5.22;;
71383;SDS011;67558;52.166;5.004;2023-03-01T02:58:46;7.85;;;4.38;;
71383;SDS011;67558;52.166;5.004;2023-03-01T03:01:16;8.80;;;3.83;;
71383;SDS011;67558;52.166;5.004;2023-03-01T03:03:41;7.75;;;3.75;;
71383;SDS011;67558;52.166;5.004;2023-03-01T03:06:07;7.88;;;4.90;;
71383;SDS011;67558;52.166;5.004;2023-03-01T03:08:33;8.30;;;4.53;;
71383;SDS011;67558;52.166;5.004;2023-03-01T03:10:58;7.05;;;4.20;;
71383;SDS011;67558;52.166;5.004;2023-03-01T03:13:24;6.43;;;3.95;;
71383;SDS011;67558;52.166;5.004;2023-03-01T03:15:53;11.00;;;6.03;;
71383;SDS011;67558;52.166;5.004;2023-03-01T03:18:19;8.85;;;5.90;;
71383;SDS011;67558;52.166;5.004;2023-03-01T03:20:45;9.90;;;6.97;;
71383;SDS011;67558;52.166;5.004;2023-03-01T03:23:10;9.77;;;5.10;;
71383;SDS011;67558;52.166;5.004;2023-03-01T03:25:36;8.20;;;4.97;;
71383;SDS011;67558;52.166;5.004;2023-03-01T03:28:03;9.27;;;5.30;;
71383;SDS011;67558;52.166;5.004;2023-03-01T03:30:35;7.95;;;4.78;;
71383;SDS011;67558;52.166;5.004;2023-03-01T03:33:04;11.55;;;4.47;;
71383;SDS011;67558;52.166;5.004;2023-03-01T03:35:31;6.18;;;4.68;;
71383;SDS011;67558;52.166;5.004;2023-03-01T03:37:58;5.30;;;4.20;;
71383;SDS011;67558;52.166;5.004;2023-03-01T03:40:29;5.90;;;5.30;;
71383;SDS011;67558;52.166;5.004;2023-03-01T03:42:56;8.32;;;4.93;;
71383;SDS011;67558;52.166;5.004;2023-03-01T03:45:21;7.45;;;4.90;;
71383;SDS011;67558;52.166;5.004;2023-03-01T03:47:47;7.30;;;6.50;;
71383;SDS011;67558;52.166;5.004;2023-03-01T03:50:13;7.32;;;4.75;;
71383;SDS011;67558;52.166;5.004;2023-03-01T03:52:40;8.35;;;4.30;;
71383;SDS011;67558;52.166;5.004;2023-03-01T03:55:06;7.07;;;5.68;;
71383;SDS011;67558;52.166;5.004;2023-03-01T03:57:39;8.98;;;5.28;;
71383;SDS011;67558;52.166;5.004;2023-03-01T04:00:06;9.57;;;5.05;;
71383;SDS011;67558;52.166;5.004;2023-03-01T04:02:40;8.10;;;4.97;;
71383;SDS011;67558;52.166;5.004;2023-03-01T04:05:08;7.68;;;4.93;;
71383;SDS011;67558;52.166;5.004;2023-03-01T04:07:35;8.43;;;5.05;;
71383;SDS011;67558;52.166;5.004;2023-03-01T04:10:02;7.03;;;4.32;;
71383;SDS011;67558;52.166;5.004;2023-03-01T04:12:29;8.70;;;5.32;;
71383;SDS011;67558;52.166;5.004;2023-03-01T04:14:54;6.13;;;4.20;;
71383;SDS011;67558;52.166;5.004;2023-03-01T04:17:20;9.48;;;4.15;;
71383;SDS011;67558;52.166;5.004;2023-03-01T04:19:45;6.82;;;4.63;;
71383;SDS011;67558;52.166;5.004;2023-03-01T04:22:13;6.40;;;4.60;;
71383;SDS011;67558;52.166;5.004;2023-03-01T04:24:42;9.98;;;5.30;;
71383;SDS011;67558;52.166;5.004;2023-03-01T04:27:08;10.15;;;5.03;;
71383;SDS011;67558;52.166;5.004;2023-03-01T04:29:33;6.95;;;4.47;;
71383;SDS011;67558;52.166;5.004;2023-03-01T04:31:59;9.32;;;4.93;;
71383;SDS011;67558;52.166;5.004;2023-03-01T04:34:24;5.72;;;3.67;;
71383;SDS011;67558;52.166;5.004;2023-03-01T04:36:51;10.93;;;5.40;;
71383;SDS011;67558;52.166;5.004;2023-03-01T04:39:17;6.05;;;4.85;;
71383;SDS011;67558;52.166;5.004;2023-03-01T04:41:43;9.88;;;5.30;;
71383;SDS011;67558;52.166;5.004;2023-03-01T04:44:08;7.45;;;5.22;;
71383;SDS011;67558;52.166;5.004;2023-03-01T04:46:34;7.90;;;4.60;;
71383;SDS011;67558;52.166;5.004;2023-03-01T04:49:00;4.70;;;4.00;;
71383;SDS011;67558;52.166;5.004;2023-03-01T04:51:26;9.18;;;4.57;;
71383;SDS011;67558;52.166;5.004;2023-03-01T04:53:51;8.00;;;4.43;;
71383;SDS011;67558;52.166;5.004;2023-03-01T04:56:16;7.47;;;4.95;;
71383;SDS011;67558;52.166;5.004;2023-03-01T04:58:44;7.75;;;3.88;;
71383;SDS011;67558;52.166;5.004;2023-03-01T05:01:11;11.10;;;4.75;;
71383;SDS011;67558;52.166;5.004;2023-03-01T05:03:44;9.45;;;4.53;;
71383;SDS011;67558;52.166;5.004;2023-03-01T05:06:10;8.32;;;4.43;;
71383;SDS011;67558;52.166;5.004;2023-03-01T05:08:37;8.25;;;4.47;;
71383;SDS011;67558;52.166;5.004;2023-03-01T05:11:03;12.15;;;5.30;;
71383;SDS011;67558;52.166;5.004;2023-03-01T05:13:29;7.68;;;4.63;;
71383;SDS011;67558;52.166;5.004;2023-03-01T05:15:55;10.02;;;4.97;;
71383;SDS011;67558;52.166;5.004;2023-03-01T05:18:27;6.78;;;4.75;;
71383;SDS011;67558;52.166;5.004;2023-03-01T05:23:23;9.15;;;5.35;;
71383;SDS011;67558;52.166;5.004;2023-03-01T05:25:49;8.90;;;4.68;;
71383;SDS011;67558;52.166;5.004;2023-03-01T05:28:17;6.43;;;4.75;;
71383;SDS011;67558;52.166;5.004;2023-03-01T05:30:44;14.20;;;6.25;;
71383;SDS011;67558;52.166;5.004;2023-03-01T05:33:10;5.00;;;3.58;;
71383;SDS011;67558;52.166;5.004;2023-03-01T05:35:39;8.00;;;4.18;;
71383;SDS011;67558;52.166;5.004;2023-03-01T05:38:06;10.85;;;4.57;;
71383;SDS011;67558;52.166;5.004;2023-03-01T05:40:32;8.50;;;4.78;;
71383;SDS011;67558;52.166;5.004;2023-03-01T05:42:58;6.90;;;4.10;;
71383;SDS011;67558;52.166;5.004;2023-03-01T05:45:24;9.88;;;5.75;;
71383;SDS011;67558;52.166;5.004;2023-03-01T05:47:51;6.40;;;3.75;;
71383;SDS011;67558;52.166;5.004;2023-03-01T05:50:18;7.95;;;4.78;;
71383;SDS011;67558;52.166;5.004;2023-03-01T05:52:54;6.05;;;5.20;;
71383;SDS011;67558;52.166;5.004;2023-03-01T05:55:25;7.10;;;5.55;;
71383;SDS011;67558;52.166;5.004;2023-03-01T05:57:51;10.90;;;6.13;;
71383;SDS011;67558;52.166;5.004;2023-03-01T06:00:18;5.30;;;4.07;;
71383;SDS011;67558;52.166;5.004;2023-03-01T06:02:47;7.00;;;4.55;;
71383;SDS011;67558;52.166;5.004;2023-03-01T06:05:12;9.93;;;4.85;;
71383;SDS011;67558;52.166;5.004;2023-03-01T06:07:39;6.63;;;4.40;;
71383;SDS011;67558;52.166;5.004;2023-03-01T06:10:05;7.45;;;3.67;;
71383;SDS011;67558;52.166;5.004;2023-03-01T06:12:32;4.35;;;3.33;;
71383;SDS011;67558;52.166;5.004;2023-03-01T06:14:58;8.00;;;5.25;;
71383;SDS011;67558;52.166;5.004;2023-03-01T06:17:24;10.98;;;6.32;;
71383;SDS011;67558;52.166;5.004;2023-03-01T06:19:49;7.57;;;4.75;;
71383;SDS011;67558;52.166;5.004;2023-03-01T06:22:14;9.35;;;5.60;;
71383;SDS011;67558;52.166;5.004;2023-03-01T06:24:40;7.28;;;5.07;;
71383;SDS011;67558;52.166;5.004;2023-03-01T06:27:05;8.85;;;4.88;;
71383;SDS011;67558;52.166;5.004;2023-03-01T06:29:31;6.45;;;3.78;;
71383;SDS011;67558;52.166;5.004;2023-03-01T06:31:56;7.35;;;3.75;;
71383;SDS011;67558;52.166;5.004;2023-03-01T06:34:21;8.85;;;4.93;;
71383;SDS011;67558;52.166;5.004;2023-03-01T06:36:47;7.28;;;5.13;;
71383;SDS011;67558;52.166;5.004;2023-03-01T06:39:12;6.03;;;4.45;;
71383;SDS011;67558;52.166;5.004;2023-03-01T06:41:38;9.40;;;5.15;;
71383;SDS011;67558;52.166;5.004;2023-03-01T06:44:03;10.60;;;5.88;;
71383;SDS011;67558;52.166;5.004;2023-03-01T06:46:28;5.72;;;4.03;;
71383;SDS011;67558;52.166;5.004;2023-03-01T06:48:54;7.82;;;4.75;;
71383;SDS011;67558;52.166;5.004;2023-03-01T06:51:19;7.25;;;4.72;;
71383;SDS011;67558;52.166;5.004;2023-03-01T06:53:45;7.78;;;4.07;;
71383;SDS011;67558;52.166;5.004;2023-03-01T06:56:11;8.60;;;5.53;;
71383;SDS011;67558;52.166;5.004;2023-03-01T06:58:37;6.78;;;4.25;;
71383;SDS011;67558;52.166;5.004;2023-03-01T07:01:05;11.23;;;5.43;;
71383;SDS011;67558;52.166;5.004;2023-03-01T07:03:34;9.98;;;5.97;;
71383;SDS011;67558;52.166;5.004;2023-03-01T07:06:00;8.13;;;5.07;;
71383;SDS011;67558;52.166;5.004;2023-03-01T07:08:25;8.63;;;5.25;;
71383;SDS011;67558;52.166;5.004;2023-03-01T07:10:59;9.50;;;5.63;;
71383;SDS011;67558;52.166;5.004;2023-03-01T07:13:27;7.28;;;4.53;;
71383;SDS011;67558;52.166;5.004;2023-03-01T07:15:52;7.18;;;4.90;;
71383;SDS011;67558;52.166;5.004;2023-03-01T07:18:18;9.73;;;6.72;;
71383;SDS011;67558;52.166;5.004;2023-03-01T07:20:43;7.78;;;5.85;;
71383;SDS011;67558;52.166;5.004;2023-03-01T07:23:08;9.00;;;5.13;;
71383;SDS011;67558;52.166;5.004;2023-03-01T07:25:34;7.75;;;5.25;;
71383;SDS011;67558;52.166;5.004;2023-03-01T07:27:59;8.80;;;5.03;;
71383;SDS011;67558;52.166;5.004;2023-03-01T07:30:25;7.35;;;5.03;;
71383;SDS011;67558;52.166;5.004;2023-03-01T07:32:53;10.48;;;5.25;;
71383;SDS011;67558;52.166;5.004;2023-03-01T07:35:19;8.95;;;5.03;;
71383;SDS011;67558;52.166;5.004;2023-03-01T07:37:44;10.40;;;6.03;;
71383;SDS011;67558;52.166;5.004;2023-03-01T07:40:10;9.75;;;5.82;;
71383;SDS011;67558;52.166;5.004;2023-03-01T07:42:36;10.85;;;8.20;;
71383;SDS011;67558;52.166;5.004;2023-03-01T07:45:01;12.43;;;6.78;;
71383;SDS011;67558;52.166;5.004;2023-03-01T07:47:27;11.45;;;6.47;;
71383;SDS011;67558;52.166;5.004;2023-03-01T07:49:52;15.00;;;8.05;;
71383;SDS011;67558;52.166;5.004;2023-03-01T07:52:18;13.00;;;6.80;;
71383;SDS011;67558;52.166;5.004;2023-03-01T07:54:43;19.55;;;7.10;;
71383;SDS011;67558;52.166;5.004;2023-03-01T07:57:09;12.80;;;7.97;;
71383;SDS011;67558;52.166;5.004;2023-03-01T07:59:35;16.48;;;7.68;;
71383;SDS011;67558;52.166;5.004;2023-03-01T08:02:00;13.05;;;7.68;;
71383;SDS011;67558;52.166;5.004;2023-03-01T08:04:26;12.73;;;7.30;;
71383;SDS011;67558;52.166;5.004;2023-03-01T08:06:52;12.50;;;6.65;;
71383;SDS011;67558;52.166;5.004;2023-03-01T08:09:18;12.13;;;7.32;;
71383;SDS011;67558;52.166;5.004;2023-03-01T08:11:43;14.52;;;7.88;;
71383;SDS011;67558;52.166;5.004;2023-03-01T08:14:09;12.60;;;7.88;;
71383;SDS011;67558;52.166;5.004;2023-03-01T08:16:35;15.93;;;7.90;;
71383;SDS011;67558;52.166;5.004;2023-03-01T08:19:04;11.35;;;6.50;;
71383;SDS011;67558;52.166;5.004;2023-03-01T08:21:34;14.30;;;7.35;;
71383;SDS011;67558;52.166;5.004;2023-03-01T08:24:04;16.73;;;8.65;;
71383;SDS011;67558;52.166;5.004;2023-03-01T08:26:31;14.73;;;7.20;;
71383;SDS011;67558;52.166;5.004;2023-03-01T08:28:57;11.98;;;7.10;;
71383;SDS011;67558;52.166;5.004;2023-03-01T08:33:53;14.70;;;6.05;;
71383;SDS011;67558;52.166;5.004;2023-03-01T08:36:24;12.73;;;8.23;;
71383;SDS011;67558;52.166;5.004;2023-03-01T08:38:50;8.45;;;4.95;;
71383;SDS011;67558;52.166;5.004;2023-03-01T08:41:16;4.53;;;3.25;;
71383;SDS011;67558;52.166;5.004;2023-03-01T08:43:42;7.97;;;5.25;;
71383;SDS011;67558;52.166;5.004;2023-03-01T08:46:07;7.07;;;5.78;;
71383;SDS011;67558;52.166;5.004;2023-03-01T08:48:33;8.55;;;5.68;;
71383;SDS011;67558;52.166;5.004;2023-03-01T08:51:15;2.42;;;2.13;;
71383;SDS011;67558;52.166;5.004;2023-03-01T08:53:42;7.93;;;4.97;;
71383;SDS011;67558;52.166;5.004;2023-03-01T08:56:09;6.53;;;4.00;;
71383;SDS011;67558;52.166;5.004;2023-03-01T08:58:35;11.45;;;5.22;;
71383;SDS011;67558;52.166;5.004;2023-03-01T09:01:01;8.82;;;5.38;;
71383;SDS011;67558;52.166;5.004;2023-03-01T09:03:32;10.20;;;5.50;;
71383;SDS011;67558;52.166;5.004;2023-03-01T09:06:00;13.13;;;6.15;;
71383;SDS011;67558;52.166;5.004;2023-03-01T09:08:26;7.07;;;4.43;;
71383;SDS011;67558;52.166;5.004;2023-03-01T09:10:52;4.95;;;3.58;;
71383;SDS011;67558;52.166;5.004;2023-03-01T09:13:17;9.23;;;5.55;;
71383;SDS011;67558;52.166;5.004;2023-03-01T09:15:43;5.97;;;4.07;;
71383;SDS011;67558;52.166;5.004;2023-03-01T09:18:08;4.82;;;3.15;;
71383;SDS011;67558;52.166;5.004;2023-03-01T09:20:33;6.43;;;3.97;;
71383;SDS011;67558;52.166;5.004;2023-03-01T09:22:59;9.13;;;5.15;;
71383;SDS011;67558;52.166;5.004;2023-03-01T09:25:24;6.07;;;3.30;;
71383;SDS011;67558;52.166;5.004;2023-03-01T09:27:53;5.95;;;3.70;;
71383;SDS011;67558;52.166;5.004;2023-03-01T09:30:19;5.75;;;3.38;;
71383;SDS011;67558;52.166;5.004;2023-03-01T09:32:46;5.00;;;3.17;;
71383;SDS011;67558;52.166;5.004;2023-03-01T09:35:12;11.70;;;4.93;;
71383;SDS011;67558;52.166;5.004;2023-03-01T09:37:38;4.40;;;2.95;;
71383;SDS011;67558;52.166;5.004;2023-03-01T09:40:07;7.78;;;4.10;;
71383;SDS011;67558;52.166;5.004;2023-03-01T09:42:45;6.63;;;4.22;;
71383;SDS011;67558;52.166;5.004;2023-03-01T09:45:26;8.00;;;4.57;;
71383;SDS011;67558;52.166;5.004;2023-03-01T09:47:57;5.30;;;3.58;;
71383;SDS011;67558;52.166;5.004;2023-03-01T09:50:23;6.43;;;4.18;;
71383;SDS011;67558;52.166;5.004;2023-03-01T09:55:57;6.85;;;3.72;;
71383;SDS011;67558;52.166;5.004;2023-03-01T10:01:25;5.50;;;3.45;;
71383;SDS011;67558;52.166;5.004;2023-03-01T10:06:28;6.05;;;3.45;;
71383;SDS011;67558;52.166;5.004;2023-03-01T10:08:58;4.80;;;2.42;;
71383;SDS011;67558;52.166;5.004;2023-03-01T10:11:34;5.28;;;4.28;;
71383;SDS011;67558;52.166;5.004;2023-03-01T10:17:02;6.65;;;2.72;;
71383;SDS011;67558;52.166;5.004;2023-03-01T10:19:33;5.10;;;3.20;;
71383;SDS011;67558;52.166;5.004;2023-03-01T10:22:05;3.92;;;2.67;;
71383;SDS011;67558;52.166;5.004;2023-03-01T10:24:34;4.15;;;3.10;;
71383;SDS011;67558;52.166;5.004;2023-03-01T10:27:04;3.63;;;2.30;;
71383;SDS011;67558;52.166;5.004;2023-03-01T10:29:56;3.28;;;2.03;;
71383;SDS011;67558;52.166;5.004;2023-03-01T10:32:31;2.60;;;1.92;;
71383;SDS011;67558;52.166;5.004;2023-03-01T10:34:56;6.10;;;2.78;;
71383;SDS011;67558;52.166;5.004;2023-03-01T10:37:22;5.00;;;2.65;;
71383;SDS011;67558;52.166;5.004;2023-03-01T10:44:57;4.93;;;2.83;;
71383;SDS011;67558;52.166;5.004;2023-03-01T10:47:34;3.83;;;2.88;;
71383;SDS011;67558;52.166;5.004;2023-03-01T10:50:01;4.72;;;3.42;;
71383;SDS011;67558;52.166;5.004;2023-03-01T10:52:30;5.03;;;2.20;;
71383;SDS011;67558;52.166;5.004;2023-03-01T10:55:04;7.10;;;3.15;;
71383;SDS011;67558;52.166;5.004;2023-03-01T10:57:50;4.93;;;2.63;;
71383;SDS011;67558;52.166;5.004;2023-03-01T11:03:23;5.47;;;3.42;;
71383;SDS011;67558;52.166;5.004;2023-03-01T11:08:47;2.75;;;2.08;;
71383;SDS011;67558;52.166;5.004;2023-03-01T11:11:19;4.28;;;2.10;;
71383;SDS011;67558;52.166;5.004;2023-03-01T11:14:21;4.05;;;2.40;;
71383;SDS011;67558;52.166;5.004;2023-03-01T11:16:47;2.80;;;1.83;;
71383;SDS011;67558;52.166;5.004;2023-03-01T11:19:22;6.43;;;2.95;;
71383;SDS011;67558;52.166;5.004;2023-03-01T11:24:47;6.22;;;3.17;;
71383;SDS011;67558;52.166;5.004;2023-03-01T11:29:55;3.15;;;2.08;;
71383;SDS011;67558;52.166;5.004;2023-03-01T11:32:26;4.03;;;2.50;;
71383;SDS011;67558;52.166;5.004;2023-03-01T11:34:58;4.47;;;2.40;;
71383;SDS011;67558;52.166;5.004;2023-03-01T11:40:28;4.93;;;2.45;;
71383;SDS011;67558;52.166;5.004;2023-03-01T11:50:59;2.92;;;2.22;;
71383;SDS011;67558;52.166;5.004;2023-03-01T11:56:34;3.17;;;2.58;;
71383;SDS011;67558;52.166;5.004;2023-03-01T11:59:10;3.15;;;2.58;;
71383;SDS011;67558;52.166;5.004;2023-03-01T12:04:40;3.72;;;2.72;;
71383;SDS011;67558;52.166;5.004;2023-03-01T12:12:49;4.20;;;3.05;;
71383;SDS011;67558;52.166;5.004;2023-03-01T12:15:22;2.70;;;2.40;;
71383;SDS011;67558;52.166;5.004;2023-03-01T12:18:11;4.63;;;2.72;;
71383;SDS011;67558;52.166;5.004;2023-03-01T12:51:23;7.03;;;3.40;;
71383;SDS011;67558;52.166;5.004;2023-03-01T12:53:52;4.60;;;2.42;;
71383;SDS011;67558;52.166;5.004;2023-03-01T12:56:23;2.83;;;2.33;;
71383;SDS011;67558;52.166;5.004;2023-03-01T13:01:43;3.22;;;2.20;;
71383;SDS011;67558;52.166;5.004;2023-03-01T13:04:20;4.53;;;3.13;;
71383;SDS011;67558;52.166;5.004;2023-03-01T13:09:31;3.35;;;2.75;;
71383;SDS011;67558;52.166;5.004;2023-03-01T13:17:48;4.22;;;3.30;;
71383;SDS011;67558;52.166;5.004;2023-03-01T13:21:06;3.72;;;3.05;;
71383;SDS011;67558;52.166;5.004;2023-03-01T13:33:44;4.28;;;2.78;;
71383;SDS011;67558;52.166;5.004;2023-03-01T13:44:29;2.30;;;2.08;;
71383;SDS011;67558;52.166;5.004;2023-03-01T13:49:46;2.80;;;1.70;;
71383;SDS011;67558;52.166;5.004;2023-03-01T13:52:23;2.47;;;1.98;;
71383;SDS011;67558;52.166;5.004;2023-03-01T13:57:53;3.78;;;2.58;;
71383;SDS011;67558;52.166;5.004;2023-03-01T14:03:04;4.18;;;2.63;;
71383;SDS011;67558;52.166;5.004;2023-03-01T14:05:30;4.53;;;2.35;;
71383;SDS011;67558;52.166;5.004;2023-03-01T14:07:56;3.95;;;2.63;;
71383;SDS011;67558;52.166;5.004;2023-03-01T14:10:22;2.42;;;2.08;;
71383;SDS011;67558;52.166;5.004;2023-03-01T14:15:45;4.90;;;2.28;;
71383;SDS011;67558;52.166;5.004;2023-03-01T14:18:24;3.67;;;3.20;;
71383;SDS011;67558;52.166;5.004;2023-03-01T14:20:54;4.60;;;2.92;;
71383;SDS011;67558;52.166;5.004;2023-03-01T14:23:21;2.92;;;2.55;;
71383;SDS011;67558;52.166;5.004;2023-03-01T14:25:49;1.92;;;1.67;;
71383;SDS011;67558;52.166;5.004;2023-03-01T14:28:26;4.70;;;2.58;;
71383;SDS011;67558;52.166;5.004;2023-03-01T14:30:54;4.03;;;2.75;;
71383;SDS011;67558;52.166;5.004;2023-03-01T14:35:55;2.72;;;2.20;;
71383;SDS011;67558;52.166;5.004;2023-03-01T14:38:21;3.30;;;2.47;;
71383;SDS011;67558;52.166;5.004;2023-03-01T14:40:48;4.38;;;2.50;;
71383;SDS011;67558;52.166;5.004;2023-03-01T14:43:21;2.20;;;2.00;;
71383;SDS011;67558;52.166;5.004;2023-03-01T14:45:49;2.55;;;2.15;;
71383;SDS011;67558;52.166;5.004;2023-03-01T14:48:15;7.32;;;2.67;;
71383;SDS011;67558;52.166;5.004;2023-03-01T14:50:41;2.88;;;1.98;;
71383;SDS011;67558;52.166;5.004;2023-03-01T14:53:18;5.30;;;2.97;;
71383;SDS011;67558;52.166;5.004;2023-03-01T14:55:47;4.38;;;4.07;;
71383;SDS011;67558;52.166;5.004;2023-03-01T14:58:18;4.20;;;2.75;;
71383;SDS011;67558;52.166;5.004;2023-03-01T15:03:40;2.17;;;1.98;;
71383;SDS011;67558;52.166;5.004;2023-03-01T15:06:07;3.45;;;2.25;;
71383;SDS011;67558;52.166;5.004;2023-03-01T15:08:33;4.65;;;2.65;;
71383;SDS011;67558;52.166;5.004;2023-03-01T15:11:03;10.40;;;2.20;;
71383;SDS011;67558;52.166;5.004;2023-03-01T15:13:38;2.90;;;2.45;;
71383;SDS011;67558;52.166;5.004;2023-03-01T15:16:08;3.88;;;2.20;;
71383;SDS011;67558;52.166;5.004;2023-03-01T15:18:36;4.68;;;2.80;;
71383;SDS011;67558;52.166;5.004;2023-03-01T15:21:10;2.13;;;1.65;;
71383;SDS011;67558;52.166;5.004;2023-03-01T15:23:41;2.15;;;1.98;;
71383;SDS011;67558;52.166;5.004;2023-03-01T15:28:54;2.30;;;1.67;;
71383;SDS011;67558;52.166;5.004;2023-03-01T15:31:28;4.53;;;2.60;;
71383;SDS011;67558;52.166;5.004;2023-03-01T15:36:47;2.90;;;2.47;;
71383;SDS011;67558;52.166;5.004;2023-03-01T15:44:35;3.30;;;2.65;;
71383;SDS011;67558;52.166;5.004;2023-03-01T15:47:04;4.05;;;3.10;;
71383;SDS011;67558;52.166;5.004;2023-03-01T15:49:46;5.28;;;3.60;;
71383;SDS011;67558;52.166;5.004;2023-03-01T15:52:13;4.60;;;2.58;;
71383;SDS011;67558;52.166;5.004;2023-03-01T15:55:00;5.90;;;3.22;;
71383;SDS011;67558;52.166;5.004;2023-03-01T15:57:27;5.47;;;3.20;;
71383;SDS011;67558;52.166;5.004;2023-03-01T15:59:53;4.03;;;2.45;;
71383;SDS011;67558;52.166;5.004;2023-03-01T16:02:19;3.38;;;2.50;;
71383;SDS011;67558;52.166;5.004;2023-03-01T16:04:46;3.92;;;3.03;;
71383;SDS011;67558;52.166;5.004;2023-03-01T16:07:12;4.65;;;2.65;;
71383;SDS011;67558;52.166;5.004;2023-03-01T16:09:37;4.22;;;3.83;;
71383;SDS011;67558;52.166;5.004;2023-03-01T16:12:02;7.25;;;3.03;;
71383;SDS011;67558;52.166;5.004;2023-03-01T16:14:28;6.53;;;4.07;;
71383;SDS011;67558;52.166;5.004;2023-03-01T16:16:54;4.53;;;3.03;;
71383;SDS011;67558;52.166;5.004;2023-03-01T16:19:19;5.53;;;3.10;;
71383;SDS011;67558;52.166;5.004;2023-03-01T16:21:45;5.10;;;4.63;;
71383;SDS011;67558;52.166;5.004;2023-03-01T16:24:11;5.63;;;4.13;;
71383;SDS011;67558;52.166;5.004;2023-03-01T16:26:38;5.57;;;3.53;;
71383;SDS011;67558;52.166;5.004;2023-03-01T16:29:03;4.63;;;3.60;;
71383;SDS011;67558;52.166;5.004;2023-03-01T16:31:29;5.55;;;2.78;;
71383;SDS011;67558;52.166;5.004;2023-03-01T16:33:56;4.97;;;3.13;;
71383;SDS011;67558;52.166;5.004;2023-03-01T16:36:23;4.05;;;3.03;;
71383;SDS011;67558;52.166;5.004;2023-03-01T16:38:49;3.63;;;2.80;;
71383;SDS011;67558;52.166;5.004;2023-03-01T16:41:16;4.90;;;3.08;;
71383;SDS011;67558;52.166;5.004;2023-03-01T16:43:44;6.63;;;4.43;;
71383;SDS011;67558;52.166;5.004;2023-03-01T16:46:12;11.63;;;5.13;;
71383;SDS011;67558;52.166;5.004;2023-03-01T16:48:39;7.22;;;4.25;;
71383;SDS011;67558;52.166;5.004;2023-03-01T16:51:05;7.07;;;4.65;;
71383;SDS011;67558;52.166;5.004;2023-03-01T16:53:32;5.53;;;3.22;;
71383;SDS011;67558;52.166;5.004;2023-03-01T16:55:59;6.28;;;3.20;;
71383;SDS011;67558;52.166;5.004;2023-03-01T16:58:25;6.05;;;2.75;;
71383;SDS011;67558;52.166;5.004;2023-03-01T17:00:54;5.70;;;3.47;;
71383;SDS011;67558;52.166;5.004;2023-03-01T17:03:20;3.78;;;2.95;;
71383;SDS011;67558;52.166;5.004;2023-03-01T17:05:46;2.10;;;1.70;;
71383;SDS011;67558;52.166;5.004;2023-03-01T17:08:12;5.05;;;3.67;;
71383;SDS011;67558;52.166;5.004;2023-03-01T17:10:37;5.10;;;3.47;;
71383;SDS011;67558;52.166;5.004;2023-03-01T17:13:03;7.35;;;3.85;;
71383;SDS011;67558;52.166;5.004;2023-03-01T17:15:28;3.83;;;2.80;;
71383;SDS011;67558;52.166;5.004;2023-03-01T17:17:54;3.38;;;2.25;;
71383;SDS011;67558;52.166;5.004;2023-03-01T17:20:19;6.18;;;3.05;;
71383;SDS011;67558;52.166;5.004;2023-03-01T17:22:45;3.75;;;2.75;;
71383;SDS011;67558;52.166;5.004;2023-03-01T17:25:10;5.57;;;4.03;;
71383;SDS011;67558;52.166;5.004;2023-03-01T17:27:37;6.60;;;2.63;;